sensor_id;sensor_type;location;lat;lon;timestamp;temperature;humidity
17956;DHT22;27666;51.498;11.966;2022-11-15T00:02:23;7.70;99.90
17956;DHT22;27666;51.498;11.966;2022-11-15T00:05:09;7.70;99.90
17956;DHT22;27666;51.498;11.966;2022-11-15T00:07:56;7.70;99.90
17956;DHT22;27666;51.498;11.966;2022-11-15T00:10:54;7.70;99.90
17956;DHT22;27666;51.498;11.966;2022-11-15T00:13:41;7.70;99.90
17956;DHT22;27666;51.498;11.966;2022-11-15T00:16:28;7.80;99.90
17956;DHT22;27666;51.498;11.966;2022-11-15T00:19:14;7.80;99.90
17956;DHT22;27666;51.498;11.966;2022-11-15T00:22:01;7.80;99.90
17956;DHT22;27666;51.498;11.966;2022-11-15T00:24:48;7.80;99.90
17956;DHT22;27666;51.498;11.966;2022-11-15T00:27:34;7.80;99.90
17956;DHT22;27666;51.498;11.966;2022-11-15T00:30:22;7.80;99.90
17956;DHT22;27666;51.498;11.966;2022-11-15T00:33:09;7.80;99.90
17956;DHT22;27666;51.498;11.966;2022-11-15T00:36:00;7.80;99.90
17956;DHT22;27666;51.498;11.966;2022-11-15T00:38:47;7.80;99.90
17956;DHT22;27666;51.498;11.966;2022-11-15T00:41:33;7.80;99.90
17956;DHT22;27666;51.498;11.966;2022-11-15T00:44:19;7.70;99.90
17956;DHT22;27666;51.498;11.966;2022-11-15T00:47:07;7.70;99.90
17956;DHT22;27666;51.498;11.966;2022-11-15T00:49:53;7.70;99.90
17956;DHT22;27666;51.498;11.966;2022-11-15T00:52:40;7.70;99.90
17956;DHT22;27666;51.498;11.966;2022-11-15T00:55:27;7.80;99.90
17956;DHT22;27666;51.498;11.966;2022-11-15T00:58:13;7.80;99.90
17956;DHT22;27666;51.498;11.966;2022-11-15T01:01:06;7.80;99.90
17956;DHT22;27666;51.498;11.966;2022-11-15T01:03:54;7.70;99.90
17956;DHT22;27666;51.498;11.966;2022-11-15T01:06:45;7.70;99.90
17956;DHT22;27666;51.498;11.966;2022-11-15T01:09:32;7.70;99.90
17956;DHT22;27666;51.498;11.966;2022-11-15T01:12:19;7.60;99.90
17956;DHT22;27666;51.498;11.966;2022-11-15T01:15:06;7.60;99.90
17956;DHT22;27666;51.498;11.966;2022-11-15T01:17:52;7.60;99.90
17956;DHT22;27666;51.498;11.966;2022-11-15T01:20:41;7.60;99.90
17956;DHT22;27666;51.498;11.966;2022-11-15T01:23:28;7.60;99.90
17956;DHT22;27666;51.498;11.966;2022-11-15T01:26:16;7.50;99.90
17956;DHT22;27666;51.498;11.966;2022-11-15T01:29:03;7.50;99.90
17956;DHT22;27666;51.498;11.966;2022-11-15T01:31:49;7.50;99.90
17956;DHT22;27666;51.498;11.966;2022-11-15T01:34:36;7.50;99.90
17956;DHT22;27666;51.498;11.966;2022-11-15T01:37:23;7.40;99.90
17956;DHT22;27666;51.498;11.966;2022-11-15T01:40:10;7.40;99.90
17956;DHT22;27666;51.498;11.966;2022-11-15T01:42:56;7.40;99.90
17956;DHT22;27666;51.498;11.966;2022-11-15T01:45:43;7.30;99.90
17956;DHT22;27666;51.498;11.966;2022-11-15T01:48:33;7.40;99.90
17956;DHT22;27666;51.498;11.966;2022-11-15T01:51:23;7.40;99.90
17956;DHT22;27666;51.498;11.966;2022-11-15T01:54:14;7.40;99.90
17956;DHT22;27666;51.498;11.966;2022-11-15T01:57:05;7.50;99.90
17956;DHT22;27666;51.498;11.966;2022-11-15T01:59:54;7.40;99.90
17956;DHT22;27666;51.498;11.966;2022-11-15T02:02:41;7.40;99.90
17956;DHT22;27666;51.498;11.966;2022-11-15T02:05:27;7.50;99.90
17956;DHT22;27666;51.498;11.966;2022-11-15T02:08:15;7.50;99.90
17956;DHT22;27666;51.498;11.966;2022-11-15T02:11:08;7.40;99.90
17956;DHT22;27666;51.498;11.966;2022-11-15T02:13:55;7.40;99.90
17956;DHT22;27666;51.498;11.966;2022-11-15T02:16:47;7.40;99.90
17956;DHT22;27666;51.498;11.966;2022-11-15T02:23:20;7.40;99.90
17956;DHT22;27666;51.498;11.966;2022-11-15T02:26:37;7.40;99.90
17956;DHT22;27666;51.498;11.966;2022-11-15T02:29:51;7.40;99.90
17956;DHT22;27666;51.498;11.966;2022-11-15T02:32:47;7.30;99.90
17956;DHT22;27666;51.498;11.966;2022-11-15T02:35:39;7.50;99.90
17956;DHT22;27666;51.498;11.966;2022-11-15T02:38:37;7.30;99.90
17956;DHT22;27666;51.498;11.966;2022-11-15T02:41:31;7.20;99.90
17956;DHT22;27666;51.498;11.966;2022-11-15T02:44:24;7.20;99.90
17956;DHT22;27666;51.498;11.966;2022-11-15T02:47:14;7.00;99.90
17956;DHT22;27666;51.498;11.966;2022-11-15T02:50:07;7.10;99.90
17956;DHT22;27666;51.498;11.966;2022-11-15T02:52:55;7.10;99.90
17956;DHT22;27666;51.498;11.966;2022-11-15T02:55:44;7.00;99.90
17956;DHT22;27666;51.498;11.966;2022-11-15T02:58:46;7.00;99.90
17956;DHT22;27666;51.498;11.966;2022-11-15T03:01:41;7.10;99.90
17956;DHT22;27666;51.498;11.966;2022-11-15T03:04:37;7.10;99.90
17956;DHT22;27666;51.498;11.966;2022-11-15T03:07:30;7.10;99.90
17956;DHT22;27666;51.498;11.966;2022-11-15T03:10:22;7.20;99.90
17956;DHT22;27666;51.498;11.966;2022-11-15T03:13:21;7.20;99.90
17956;DHT22;27666;51.498;11.966;2022-11-15T03:16:15;7.20;99.90
17956;DHT22;27666;51.498;11.966;2022-11-15T03:19:06;7.20;99.90
17956;DHT22;27666;51.498;11.966;2022-11-15T03:21:55;7.20;99.90
17956;DHT22;27666;51.498;11.966;2022-11-15T03:24:44;7.20;99.90
17956;DHT22;27666;51.498;11.966;2022-11-15T03:27:34;7.30;99.90
17956;DHT22;27666;51.498;11.966;2022-11-15T03:30:22;7.20;99.90
17956;DHT22;27666;51.498;11.966;2022-11-15T03:33:09;7.30;99.90
17956;DHT22;27666;51.498;11.966;2022-11-15T03:35:57;7.30;99.90
17956;DHT22;27666;51.498;11.966;2022-11-15T03:38:45;7.30;99.90
17956;DHT22;27666;51.498;11.966;2022-11-15T03:41:39;7.30;99.90
17956;DHT22;27666;51.498;11.966;2022-11-15T03:44:36;7.30;99.90
17956;DHT22;27666;51.498;11.966;2022-11-15T03:47:30;7.30;99.90
17956;DHT22;27666;51.498;11.966;2022-11-15T03:50:20;7.20;99.90
17956;DHT22;27666;51.498;11.966;2022-11-15T03:53:08;7.10;99.90
17956;DHT22;27666;51.498;11.966;2022-11-15T03:55:54;7.10;99.90
17956;DHT22;27666;51.498;11.966;2022-11-15T03:58:41;7.10;99.90
17956;DHT22;27666;51.498;11.966;2022-11-15T04:01:28;7.10;99.90
17956;DHT22;27666;51.498;11.966;2022-11-15T04:04:14;7.20;99.90
17956;DHT22;27666;51.498;11.966;2022-11-15T04:07:01;7.10;99.90
17956;DHT22;27666;51.498;11.966;2022-11-15T04:09:47;7.10;99.90
17956;DHT22;27666;51.498;11.966;2022-11-15T04:12:49;7.10;99.90
17956;DHT22;27666;51.498;11.966;2022-11-15T04:15:37;7.20;99.90
17956;DHT22;27666;51.498;11.966;2022-11-15T04:18:23;7.10;99.90
17956;DHT22;27666;51.498;11.966;2022-11-15T04:21:09;7.10;99.90
17956;DHT22;27666;51.498;11.966;2022-11-15T04:24:13;7.10;99.90
17956;DHT22;27666;51.498;11.966;2022-11-15T04:27:00;7.10;99.90
17956;DHT22;27666;51.498;11.966;2022-11-15T04:29:46;7.10;99.90
17956;DHT22;27666;51.498;11.966;2022-11-15T04:32:34;7.10;99.90
17956;DHT22;27666;51.498;11.966;2022-11-15T04:35:20;7.10;99.90
17956;DHT22;27666;51.498;11.966;2022-11-15T04:38:08;7.20;99.90
17956;DHT22;27666;51.498;11.966;2022-11-15T04:40:54;7.20;99.90
17956;DHT22;27666;51.498;11.966;2022-11-15T04:43:41;7.10;99.90
17956;DHT22;27666;51.498;11.966;2022-11-15T04:46:27;7.10;99.90
17956;DHT22;27666;51.498;11.966;2022-11-15T04:49:15;7.10;99.90
17956;DHT22;27666;51.498;11.966;2022-11-15T04:52:01;7.10;99.90
17956;DHT22;27666;51.498;11.966;2022-11-15T04:54:48;7.10;99.90
17956;DHT22;27666;51.498;11.966;2022-11-15T04:57:34;7.10;99.90
17956;DHT22;27666;51.498;11.966;2022-11-15T05:00:20;7.10;99.90
17956;DHT22;27666;51.498;11.966;2022-11-15T05:03:09;7.00;99.90
17956;DHT22;27666;51.498;11.966;2022-11-15T05:06:14;7.10;99.90
17956;DHT22;27666;51.498;11.966;2022-11-15T05:09:01;7.00;99.90
17956;DHT22;27666;51.498;11.966;2022-11-15T05:11:48;7.00;99.90
17956;DHT22;27666;51.498;11.966;2022-11-15T05:14:34;7.00;99.90
17956;DHT22;27666;51.498;11.966;2022-11-15T05:17:21;7.00;99.90
17956;DHT22;27666;51.498;11.966;2022-11-15T05:20:08;7.10;99.90
17956;DHT22;27666;51.498;11.966;2022-11-15T05:22:56;7.10;99.90
17956;DHT22;27666;51.498;11.966;2022-11-15T05:25:42;7.10;99.90
17956;DHT22;27666;51.498;11.966;2022-11-15T05:28:29;7.10;99.90
17956;DHT22;27666;51.498;11.966;2022-11-15T05:31:16;7.10;99.90
17956;DHT22;27666;51.498;11.966;2022-11-15T05:34:04;7.10;99.90
17956;DHT22;27666;51.498;11.966;2022-11-15T05:36:50;7.10;99.90
17956;DHT22;27666;51.498;11.966;2022-11-15T05:39:38;7.20;99.90
17956;DHT22;27666;51.498;11.966;2022-11-15T05:42:26;7.20;99.90
17956;DHT22;27666;51.498;11.966;2022-11-15T05:45:13;7.20;99.90
17956;DHT22;27666;51.498;11.966;2022-11-15T05:48:01;7.20;99.90
17956;DHT22;27666;51.498;11.966;2022-11-15T05:50:49;7.10;99.90
17956;DHT22;27666;51.498;11.966;2022-11-15T05:53:36;7.10;99.90
17956;DHT22;27666;51.498;11.966;2022-11-15T05:56:24;7.20;99.90
17956;DHT22;27666;51.498;11.966;2022-11-15T05:59:12;7.10;99.90
17956;DHT22;27666;51.498;11.966;2022-11-15T06:01:59;7.10;99.90
17956;DHT22;27666;51.498;11.966;2022-11-15T06:04:45;7.10;99.90
17956;DHT22;27666;51.498;11.966;2022-11-15T06:07:31;7.10;99.90
17956;DHT22;27666;51.498;11.966;2022-11-15T06:10:18;7.20;99.90
17956;DHT22;27666;51.498;11.966;2022-11-15T06:13:06;7.20;99.90
17956;DHT22;27666;51.498;11.966;2022-11-15T06:15:55;7.20;99.90
17956;DHT22;27666;51.498;11.966;2022-11-15T06:18:41;7.20;99.90
17956;DHT22;27666;51.498;11.966;2022-11-15T06:21:28;7.10;99.90
17956;DHT22;27666;51.498;11.966;2022-11-15T06:24:14;7.10;99.90
17956;DHT22;27666;51.498;11.966;2022-11-15T06:27:00;7.20;99.90
17956;DHT22;27666;51.498;11.966;2022-11-15T06:29:48;7.20;99.90
17956;DHT22;27666;51.498;11.966;2022-11-15T06:32:34;7.20;99.90
17956;DHT22;27666;51.498;11.966;2022-11-15T06:35:20;7.30;99.90
17956;DHT22;27666;51.498;11.966;2022-11-15T06:38:08;7.30;99.90
17956;DHT22;27666;51.498;11.966;2022-11-15T06:40:55;7.20;99.90
17956;DHT22;27666;51.498;11.966;2022-11-15T06:43:46;7.20;99.90
17956;DHT22;27666;51.498;11.966;2022-11-15T06:46:34;7.30;99.90
17956;DHT22;27666;51.498;11.966;2022-11-15T06:49:21;7.50;99.90
17956;DHT22;27666;51.498;11.966;2022-11-15T06:52:07;7.50;99.90
17956;DHT22;27666;51.498;11.966;2022-11-15T06:54:53;7.60;99.90
17956;DHT22;27666;51.498;11.966;2022-11-15T06:57:46;7.60;99.90
17956;DHT22;27666;51.498;11.966;2022-11-15T07:00:33;7.70;99.90
17956;DHT22;27666;51.498;11.966;2022-11-15T07:03:21;7.70;99.90
17956;DHT22;27666;51.498;11.966;2022-11-15T07:06:08;7.70;99.90
17956;DHT22;27666;51.498;11.966;2022-11-15T07:08:55;7.90;99.90
17956;DHT22;27666;51.498;11.966;2022-11-15T07:11:42;7.90;99.90
17956;DHT22;27666;51.498;11.966;2022-11-15T07:14:28;8.00;99.90
17956;DHT22;27666;51.498;11.966;2022-11-15T07:17:14;8.20;99.90
17956;DHT22;27666;51.498;11.966;2022-11-15T07:20:02;8.30;99.90
17956;DHT22;27666;51.498;11.966;2022-11-15T07:22:49;8.40;99.90
17956;DHT22;27666;51.498;11.966;2022-11-15T07:25:36;8.70;99.90
17956;DHT22;27666;51.498;11.966;2022-11-15T07:28:22;8.70;99.90
17956;DHT22;27666;51.498;11.966;2022-11-15T07:31:09;8.70;99.90
17956;DHT22;27666;51.498;11.966;2022-11-15T07:33:56;8.80;99.90
17956;DHT22;27666;51.498;11.966;2022-11-15T07:36:43;8.80;99.90
17956;DHT22;27666;51.498;11.966;2022-11-15T07:39:30;9.00;99.90
17956;DHT22;27666;51.498;11.966;2022-11-15T07:42:16;9.20;99.90
17956;DHT22;27666;51.498;11.966;2022-11-15T07:45:20;9.30;99.90
17956;DHT22;27666;51.498;11.966;2022-11-15T07:48:06;9.40;99.90
17956;DHT22;27666;51.498;11.966;2022-11-15T07:50:52;9.50;99.90
17956;DHT22;27666;51.498;11.966;2022-11-15T07:53:40;9.60;99.90
17956;DHT22;27666;51.498;11.966;2022-11-15T07:56:27;9.80;99.90
17956;DHT22;27666;51.498;11.966;2022-11-15T07:59:13;9.90;99.90
17956;DHT22;27666;51.498;11.966;2022-11-15T08:01:59;9.90;99.90
17956;DHT22;27666;51.498;11.966;2022-11-15T08:04:46;9.90;99.90
17956;DHT22;27666;51.498;11.966;2022-11-15T08:07:33;10.10;99.90
17956;DHT22;27666;51.498;11.966;2022-11-15T08:10:20;10.20;99.90
17956;DHT22;27666;51.498;11.966;2022-11-15T08:13:09;10.10;99.90
17956;DHT22;27666;51.498;11.966;2022-11-15T08:15:58;10.20;99.90
17956;DHT22;27666;51.498;11.966;2022-11-15T08:18:45;10.30;99.90
17956;DHT22;27666;51.498;11.966;2022-11-15T08:21:32;10.50;99.90
17956;DHT22;27666;51.498;11.966;2022-11-15T08:24:18;10.70;99.90
17956;DHT22;27666;51.498;11.966;2022-11-15T08:27:07;10.80;99.90
17956;DHT22;27666;51.498;11.966;2022-11-15T08:30:00;10.80;99.90
17956;DHT22;27666;51.498;11.966;2022-11-15T08:32:47;10.90;99.90
17956;DHT22;27666;51.498;11.966;2022-11-15T08:35:33;11.00;99.90
17956;DHT22;27666;51.498;11.966;2022-11-15T08:38:20;11.20;99.90
17956;DHT22;27666;51.498;11.966;2022-11-15T08:41:07;11.30;99.90
17956;DHT22;27666;51.498;11.966;2022-11-15T08:43:54;11.50;99.90
17956;DHT22;27666;51.498;11.966;2022-11-15T08:46:41;11.50;99.90
17956;DHT22;27666;51.498;11.966;2022-11-15T08:49:27;11.40;99.90
17956;DHT22;27666;51.498;11.966;2022-11-15T08:52:14;11.20;99.90
17956;DHT22;27666;51.498;11.966;2022-11-15T08:55:00;11.30;99.90
17956;DHT22;27666;51.498;11.966;2022-11-15T08:57:46;11.30;99.90
17956;DHT22;27666;51.498;11.966;2022-11-15T09:00:34;11.60;99.90
17956;DHT22;27666;51.498;11.966;2022-11-15T09:03:21;11.80;99.90
17956;DHT22;27666;51.498;11.966;2022-11-15T09:06:07;12.00;99.90
17956;DHT22;27666;51.498;11.966;2022-11-15T09:08:54;12.10;99.90
17956;DHT22;27666;51.498;11.966;2022-11-15T09:11:40;12.30;99.90
17956;DHT22;27666;51.498;11.966;2022-11-15T09:14:27;12.30;99.90
17956;DHT22;27666;51.498;11.966;2022-11-15T09:17:15;12.40;99.90
17956;DHT22;27666;51.498;11.966;2022-11-15T09:20:09;12.40;99.90
17956;DHT22;27666;51.498;11.966;2022-11-15T09:22:59;12.40;99.90
17956;DHT22;27666;51.498;11.966;2022-11-15T09:25:46;12.40;99.90
17956;DHT22;27666;51.498;11.966;2022-11-15T09:28:33;12.40;99.90
17956;DHT22;27666;51.498;11.966;2022-11-15T09:31:20;12.50;99.90
17956;DHT22;27666;51.498;11.966;2022-11-15T09:34:08;12.50;99.90
17956;DHT22;27666;51.498;11.966;2022-11-15T09:36:54;12.70;99.90
17956;DHT22;27666;51.498;11.966;2022-11-15T09:39:40;12.80;99.90
17956;DHT22;27666;51.498;11.966;2022-11-15T09:42:48;12.90;99.90
17956;DHT22;27666;51.498;11.966;2022-11-15T09:45:42;13.20;99.90
17956;DHT22;27666;51.498;11.966;2022-11-15T09:48:53;13.10;99.90
17956;DHT22;27666;51.498;11.966;2022-11-15T09:51:43;13.10;99.90
17956;DHT22;27666;51.498;11.966;2022-11-15T09:54:35;13.00;99.90
17956;DHT22;27666;51.498;11.966;2022-11-15T09:57:40;13.00;99.90
17956;DHT22;27666;51.498;11.966;2022-11-15T10:00:33;13.00;99.90
17956;DHT22;27666;51.498;11.966;2022-11-15T10:03:39;12.90;99.90
17956;DHT22;27666;51.498;11.966;2022-11-15T10:06:27;12.90;99.90
17956;DHT22;27666;51.498;11.966;2022-11-15T10:09:16;12.90;99.90
17956;DHT22;27666;51.498;11.966;2022-11-15T10:12:08;12.80;99.90
17956;DHT22;27666;51.498;11.966;2022-11-15T10:15:01;12.80;99.90
17956;DHT22;27666;51.498;11.966;2022-11-15T10:18:04;12.90;99.90
17956;DHT22;27666;51.498;11.966;2022-11-15T10:20:55;12.90;99.90
17956;DHT22;27666;51.498;11.966;2022-11-15T10:23:43;12.90;99.90
17956;DHT22;27666;51.498;11.966;2022-11-15T10:26:31;12.90;99.90
17956;DHT22;27666;51.498;11.966;2022-11-15T10:29:18;12.80;99.90
17956;DHT22;27666;51.498;11.966;2022-11-15T10:32:12;12.70;99.90
17956;DHT22;27666;51.498;11.966;2022-11-15T10:34:58;12.70;99.90
17956;DHT22;27666;51.498;11.966;2022-11-15T10:37:44;12.70;99.90
17956;DHT22;27666;51.498;11.966;2022-11-15T10:40:31;12.60;99.90
17956;DHT22;27666;51.498;11.966;2022-11-15T10:43:19;12.70;99.90
17956;DHT22;27666;51.498;11.966;2022-11-15T10:46:19;12.80;99.90
17956;DHT22;27666;51.498;11.966;2022-11-15T10:49:26;12.80;99.90
17956;DHT22;27666;51.498;11.966;2022-11-15T10:52:18;12.90;99.90
17956;DHT22;27666;51.498;11.966;2022-11-15T10:55:23;12.90;99.90
17956;DHT22;27666;51.498;11.966;2022-11-15T10:58:23;13.00;99.90
17956;DHT22;27666;51.498;11.966;2022-11-15T11:01:15;13.00;99.90
17956;DHT22;27666;51.498;11.966;2022-11-15T11:04:04;13.00;99.90
17956;DHT22;27666;51.498;11.966;2022-11-15T11:06:53;13.10;99.90
17956;DHT22;27666;51.498;11.966;2022-11-15T11:09:39;13.20;99.90
17956;DHT22;27666;51.498;11.966;2022-11-15T11:12:29;13.10;99.90
17956;DHT22;27666;51.498;11.966;2022-11-15T11:15:18;13.00;99.90
17956;DHT22;27666;51.498;11.966;2022-11-15T11:18:07;13.00;99.90
17956;DHT22;27666;51.498;11.966;2022-11-15T11:20:58;13.00;99.90
17956;DHT22;27666;51.498;11.966;2022-11-15T11:23:52;12.90;99.90
17956;DHT22;27666;51.498;11.966;2022-11-15T11:26:44;12.90;99.90
17956;DHT22;27666;51.498;11.966;2022-11-15T11:29:45;12.80;99.90
17956;DHT22;27666;51.498;11.966;2022-11-15T11:32:49;12.80;99.90
17956;DHT22;27666;51.498;11.966;2022-11-15T11:35:46;12.90;99.90
17956;DHT22;27666;51.498;11.966;2022-11-15T11:38:45;12.90;99.90
17956;DHT22;27666;51.498;11.966;2022-11-15T11:41:50;12.90;99.90
17956;DHT22;27666;51.498;11.966;2022-11-15T11:44:48;12.90;99.90
17956;DHT22;27666;51.498;11.966;2022-11-15T11:47:39;12.90;99.90
17956;DHT22;27666;51.498;11.966;2022-11-15T11:50:28;12.90;99.90
17956;DHT22;27666;51.498;11.966;2022-11-15T11:53:23;12.90;99.90
17956;DHT22;27666;51.498;11.966;2022-11-15T11:56:18;13.00;99.90
17956;DHT22;27666;51.498;11.966;2022-11-15T11:59:16;12.90;99.90
17956;DHT22;27666;51.498;11.966;2022-11-15T12:02:13;13.00;99.90
17956;DHT22;27666;51.498;11.966;2022-11-15T12:05:08;13.10;99.90
17956;DHT22;27666;51.498;11.966;2022-11-15T12:08:04;13.10;99.90
17956;DHT22;27666;51.498;11.966;2022-11-15T12:11:03;13.20;99.90
17956;DHT22;27666;51.498;11.966;2022-11-15T12:13:57;13.20;99.90
17956;DHT22;27666;51.498;11.966;2022-11-15T12:16:44;13.20;99.90
17956;DHT22;27666;51.498;11.966;2022-11-15T12:19:31;13.40;99.90
17956;DHT22;27666;51.498;11.966;2022-11-15T12:22:21;13.20;99.90
17956;DHT22;27666;51.498;11.966;2022-11-15T12:25:17;13.40;99.90
17956;DHT22;27666;51.498;11.966;2022-11-15T12:28:11;13.30;99.90
17956;DHT22;27666;51.498;11.966;2022-11-15T12:31:03;13.30;99.90
17956;DHT22;27666;51.498;11.966;2022-11-15T12:33:55;13.30;99.90
17956;DHT22;27666;51.498;11.966;2022-11-15T12:36:50;13.40;99.90
17956;DHT22;27666;51.498;11.966;2022-11-15T12:40:18;13.40;99.90
17956;DHT22;27666;51.498;11.966;2022-11-15T12:43:37;13.50;99.90
17956;DHT22;27666;51.498;11.966;2022-11-15T12:46:59;13.40;99.90
17956;DHT22;27666;51.498;11.966;2022-11-15T12:49:46;13.50;99.90
17956;DHT22;27666;51.498;11.966;2022-11-15T12:52:33;13.50;99.90
17956;DHT22;27666;51.498;11.966;2022-11-15T12:55:32;13.50;99.90
17956;DHT22;27666;51.498;11.966;2022-11-15T12:58:28;13.40;99.90
17956;DHT22;27666;51.498;11.966;2022-11-15T13:04:52;13.50;99.90
17956;DHT22;27666;51.498;11.966;2022-11-15T13:07:56;13.50;99.90
17956;DHT22;27666;51.498;11.966;2022-11-15T13:10:44;13.50;99.90
17956;DHT22;27666;51.498;11.966;2022-11-15T13:13:42;13.50;99.90
17956;DHT22;27666;51.498;11.966;2022-11-15T13:16:29;13.60;99.90
17956;DHT22;27666;51.498;11.966;2022-11-15T13:19:24;13.70;99.90
17956;DHT22;27666;51.498;11.966;2022-11-15T13:22:12;13.70;99.90
17956;DHT22;27666;51.498;11.966;2022-11-15T13:25:23;13.70;99.90
17956;DHT22;27666;51.498;11.966;2022-11-15T13:28:23;13.70;99.90
17956;DHT22;27666;51.498;11.966;2022-11-15T13:31:26;13.70;99.90
17956;DHT22;27666;51.498;11.966;2022-11-15T13:34:26;13.60;99.90
17956;DHT22;27666;51.498;11.966;2022-11-15T13:37:33;13.70;99.90
17956;DHT22;27666;51.498;11.966;2022-11-15T13:40:25;13.70;99.90
17956;DHT22;27666;51.498;11.966;2022-11-15T13:43:27;13.70;99.90
17956;DHT22;27666;51.498;11.966;2022-11-15T13:46:17;13.70;99.90
17956;DHT22;27666;51.498;11.966;2022-11-15T13:49:05;13.70;99.90
17956;DHT22;27666;51.498;11.966;2022-11-15T13:51:54;13.60;99.90
17956;DHT22;27666;51.498;11.966;2022-11-15T13:54:42;13.60;99.90
17956;DHT22;27666;51.498;11.966;2022-11-15T13:57:37;13.60;99.90
17956;DHT22;27666;51.498;11.966;2022-11-15T14:00:34;13.70;99.90
17956;DHT22;27666;51.498;11.966;2022-11-15T14:03:24;13.80;99.90
17956;DHT22;27666;51.498;11.966;2022-11-15T14:06:14;13.80;99.90
17956;DHT22;27666;51.498;11.966;2022-11-15T14:09:24;13.70;99.90
17956;DHT22;27666;51.498;11.966;2022-11-15T14:12:27;13.70;99.90
17956;DHT22;27666;51.498;11.966;2022-11-15T14:15:30;13.60;99.90
17956;DHT22;27666;51.498;11.966;2022-11-15T14:18:41;13.60;99.90
17956;DHT22;27666;51.498;11.966;2022-11-15T14:21:28;13.60;99.90
17956;DHT22;27666;51.498;11.966;2022-11-15T14:24:15;13.60;99.90
17956;DHT22;27666;51.498;11.966;2022-11-15T14:27:16;13.50;99.90
17956;DHT22;27666;51.498;11.966;2022-11-15T14:30:03;13.50;99.90
17956;DHT22;27666;51.498;11.966;2022-11-15T14:32:51;13.40;99.90
17956;DHT22;27666;51.498;11.966;2022-11-15T14:35:38;13.40;99.90
17956;DHT22;27666;51.498;11.966;2022-11-15T14:38:25;13.30;99.90
17956;DHT22;27666;51.498;11.966;2022-11-15T14:41:19;13.20;99.90
17956;DHT22;27666;51.498;11.966;2022-11-15T14:44:09;13.10;99.90
17956;DHT22;27666;51.498;11.966;2022-11-15T14:46:56;13.20;99.90
17956;DHT22;27666;51.498;11.966;2022-11-15T14:49:44;13.20;99.90
17956;DHT22;27666;51.498;11.966;2022-11-15T14:52:32;13.20;99.90
17956;DHT22;27666;51.498;11.966;2022-11-15T14:55:21;13.20;99.90
17956;DHT22;27666;51.498;11.966;2022-11-15T14:58:09;13.20;99.90
17956;DHT22;27666;51.498;11.966;2022-11-15T15:00:55;13.20;99.90
17956;DHT22;27666;51.498;11.966;2022-11-15T15:03:41;13.00;99.90
17956;DHT22;27666;51.498;11.966;2022-11-15T15:06:30;13.10;99.90
17956;DHT22;27666;51.498;11.966;2022-11-15T15:09:16;13.00;99.90
17956;DHT22;27666;51.498;11.966;2022-11-15T15:12:03;12.90;99.90
17956;DHT22;27666;51.498;11.966;2022-11-15T15:14:51;12.90;99.90
17956;DHT22;27666;51.498;11.966;2022-11-15T15:17:37;12.80;99.90
17956;DHT22;27666;51.498;11.966;2022-11-15T15:20:24;12.70;99.90
17956;DHT22;27666;51.498;11.966;2022-11-15T15:23:16;12.80;99.90
17956;DHT22;27666;51.498;11.966;2022-11-15T15:26:03;12.60;99.90
17956;DHT22;27666;51.498;11.966;2022-11-15T15:28:49;12.70;99.90
17956;DHT22;27666;51.498;11.966;2022-11-15T15:31:36;12.50;99.90
17956;DHT22;27666;51.498;11.966;2022-11-15T15:34:23;12.50;99.90
17956;DHT22;27666;51.498;11.966;2022-11-15T15:37:21;12.40;99.90
17956;DHT22;27666;51.498;11.966;2022-11-15T15:40:14;12.40;99.90
17956;DHT22;27666;51.498;11.966;2022-11-15T15:43:01;12.30;99.90
17956;DHT22;27666;51.498;11.966;2022-11-15T15:45:48;12.40;99.90
17956;DHT22;27666;51.498;11.966;2022-11-15T15:48:34;12.50;99.90
17956;DHT22;27666;51.498;11.966;2022-11-15T15:51:22;12.50;99.90
17956;DHT22;27666;51.498;11.966;2022-11-15T15:54:08;12.40;99.90
17956;DHT22;27666;51.498;11.966;2022-11-15T15:56:56;12.50;99.90
17956;DHT22;27666;51.498;11.966;2022-11-15T15:59:43;12.30;99.90
17956;DHT22;27666;51.498;11.966;2022-11-15T16:02:29;12.30;99.90
17956;DHT22;27666;51.498;11.966;2022-11-15T16:05:22;12.20;99.90
17956;DHT22;27666;51.498;11.966;2022-11-15T16:08:16;12.30;99.90
17956;DHT22;27666;51.498;11.966;2022-11-15T16:11:03;12.30;99.90
17956;DHT22;27666;51.498;11.966;2022-11-15T16:13:52;12.20;99.90
17956;DHT22;27666;51.498;11.966;2022-11-15T16:16:39;12.20;99.90
17956;DHT22;27666;51.498;11.966;2022-11-15T16:19:25;12.20;99.90
17956;DHT22;27666;51.498;11.966;2022-11-15T16:22:12;12.10;99.90
17956;DHT22;27666;51.498;11.966;2022-11-15T16:24:58;12.10;99.90
17956;DHT22;27666;51.498;11.966;2022-11-15T16:27:44;12.10;99.90
17956;DHT22;27666;51.498;11.966;2022-11-15T16:30:33;12.00;99.90
17956;DHT22;27666;51.498;11.966;2022-11-15T16:33:20;12.00;99.90
17956;DHT22;27666;51.498;11.966;2022-11-15T16:36:19;12.00;99.90
17956;DHT22;27666;51.498;11.966;2022-11-15T16:39:14;12.00;99.90
17956;DHT22;27666;51.498;11.966;2022-11-15T16:42:03;11.90;99.90
17956;DHT22;27666;51.498;11.966;2022-11-15T16:44:50;11.80;99.90
17956;DHT22;27666;51.498;11.966;2022-11-15T16:47:37;11.80;99.90
17956;DHT22;27666;51.498;11.966;2022-11-15T16:50:26;11.80;99.90
17956;DHT22;27666;51.498;11.966;2022-11-15T16:53:13;11.80;99.90
17956;DHT22;27666;51.498;11.966;2022-11-15T16:55:59;11.80;99.90
17956;DHT22;27666;51.498;11.966;2022-11-15T16:58:46;11.80;99.90
17956;DHT22;27666;51.498;11.966;2022-11-15T17:01:34;11.70;99.90
17956;DHT22;27666;51.498;11.966;2022-11-15T17:04:22;11.70;99.90
17956;DHT22;27666;51.498;11.966;2022-11-15T17:07:08;11.60;99.90
17956;DHT22;27666;51.498;11.966;2022-11-15T17:09:55;11.40;99.90
17956;DHT22;27666;51.498;11.966;2022-11-15T17:12:41;11.30;99.90
17956;DHT22;27666;51.498;11.966;2022-11-15T17:15:28;11.30;99.90
17956;DHT22;27666;51.498;11.966;2022-11-15T17:18:15;11.30;99.90
17956;DHT22;27666;51.498;11.966;2022-11-15T17:21:07;11.30;99.90
17956;DHT22;27666;51.498;11.966;2022-11-15T17:23:55;11.20;99.90
17956;DHT22;27666;51.498;11.966;2022-11-15T17:26:41;11.20;99.90
17956;DHT22;27666;51.498;11.966;2022-11-15T17:29:28;11.10;99.90
17956;DHT22;27666;51.498;11.966;2022-11-15T17:32:14;11.20;99.90
17956;DHT22;27666;51.498;11.966;2022-11-15T17:35:00;11.20;99.90
17956;DHT22;27666;51.498;11.966;2022-11-15T17:37:48;11.10;99.90
17956;DHT22;27666;51.498;11.966;2022-11-15T17:40:35;11.10;99.90
17956;DHT22;27666;51.498;11.966;2022-11-15T17:43:21;11.10;99.90
17956;DHT22;27666;51.498;11.966;2022-11-15T17:46:10;11.10;99.90
17956;DHT22;27666;51.498;11.966;2022-11-15T17:48:57;11.10;99.90
17956;DHT22;27666;51.498;11.966;2022-11-15T17:51:43;11.10;99.90
17956;DHT22;27666;51.498;11.966;2022-11-15T17:54:35;11.20;99.90